sensor_id;sensor_type;location;lat;lon;timestamp;P1;durP1;ratioP1;P2;durP2;ratioP2
16033;SDS011;8121;51.418;6.998;2024-01-30T00:04:35;7.50;;;3.97;;
16033;SDS011;8121;51.418;6.998;2024-01-30T00:09:39;6.10;;;2.83;;
16033;SDS011;8121;51.418;6.998;2024-01-30T00:14:41;3.57;;;3.20;;
16033;SDS011;8121;51.418;6.998;2024-01-30T00:19:43;8.30;;;3.20;;
16033;SDS011;8121;51.418;6.998;2024-01-30T00:24:45;3.40;;;3.03;;
16033;SDS011;8121;51.418;6.998;2024-01-30T00:29:47;6.17;;;2.67;;
16033;SDS011;8121;51.418;6.998;2024-01-30T00:34:49;5.27;;;4.00;;
16033;SDS011;8121;51.418;6.998;2024-01-30T00:39:52;2.90;;;2.63;;
16033;SDS011;8121;51.418;6.998;2024-01-30T00:44:53;6.03;;;3.30;;
16033;SDS011;8121;51.418;6.998;2024-01-30T00:49:55;3.77;;;3.47;;
16033;SDS011;8121;51.418;6.998;2024-01-30T00:54:58;5.17;;;3.50;;
16033;SDS011;8121;51.418;6.998;2024-01-30T00:59:59;8.07;;;4.37;;
16033;SDS011;8121;51.418;6.998;2024-01-30T01:05:00;6.37;;;4.23;;
16033;SDS011;8121;51.418;6.998;2024-01-30T01:10:04;6.53;;;4.30;;
16033;SDS011;8121;51.418;6.998;2024-01-30T01:15:06;8.30;;;4.63;;
16033;SDS011;8121;51.418;6.998;2024-01-30T01:20:09;4.47;;;3.17;;
16033;SDS011;8121;51.418;6.998;2024-01-30T01:25:13;4.00;;;3.60;;
16033;SDS011;8121;51.418;6.998;2024-01-30T01:30:15;3.30;;;3.10;;
16033;SDS011;8121;51.418;6.998;2024-01-30T01:35:21;5.83;;;3.17;;
16033;SDS011;8121;51.418;6.998;2024-01-30T01:40:25;7.93;;;4.30;;
16033;SDS011;8121;51.418;6.998;2024-01-30T01:45:27;3.87;;;3.47;;
16033;SDS011;8121;51.418;6.998;2024-01-30T01:50:28;6.63;;;3.60;;
16033;SDS011;8121;51.418;6.998;2024-01-30T01:55:31;5.20;;;3.47;;
16033;SDS011;8121;51.418;6.998;2024-01-30T02:00:33;5.50;;;3.30;;
16033;SDS011;8121;51.418;6.998;2024-01-30T02:05:34;11.10;;;3.47;;
16033;SDS011;8121;51.418;6.998;2024-01-30T02:10:37;3.37;;;3.07;;
16033;SDS011;8121;51.418;6.998;2024-01-30T02:15:39;7.87;;;3.83;;
16033;SDS011;8121;51.418;6.998;2024-01-30T02:20:40;7.77;;;3.30;;
16033;SDS011;8121;51.418;6.998;2024-01-30T02:25:43;8.60;;;4.17;;
16033;SDS011;8121;51.418;6.998;2024-01-30T02:30:45;4.50;;;3.00;;
16033;SDS011;8121;51.418;6.998;2024-01-30T02:35:47;7.53;;;3.93;;
16033;SDS011;8121;51.418;6.998;2024-01-30T02:40:50;2.40;;;2.23;;
16033;SDS011;8121;51.418;6.998;2024-01-30T02:45:51;2.20;;;2.00;;
16033;SDS011;8121;51.418;6.998;2024-01-30T02:50:53;4.47;;;2.33;;
16033;SDS011;8121;51.418;6.998;2024-01-30T02:55:55;4.03;;;3.30;;
16033;SDS011;8121;51.418;6.998;2024-01-30T03:00:57;3.40;;;2.83;;
16033;SDS011;8121;51.418;6.998;2024-01-30T03:05:58;3.33;;;2.97;;
16033;SDS011;8121;51.418;6.998;2024-01-30T03:11:01;7.30;;;3.10;;
16033;SDS011;8121;51.418;6.998;2024-01-30T03:16:03;6.10;;;3.60;;
16033;SDS011;8121;51.418;6.998;2024-01-30T03:21:04;2.40;;;2.20;;
16033;SDS011;8121;51.418;6.998;2024-01-30T03:26:07;5.67;;;2.60;;
16033;SDS011;8121;51.418;6.998;2024-01-30T03:31:09;3.50;;;3.00;;
16033;SDS011;8121;51.418;6.998;2024-01-30T03:36:10;4.00;;;3.53;;
16033;SDS011;8121;51.418;6.998;2024-01-30T03:41:13;3.70;;;3.40;;
16033;SDS011;8121;51.418;6.998;2024-01-30T03:46:15;3.30;;;3.00;;
16033;SDS011;8121;51.418;6.998;2024-01-30T03:51:16;4.03;;;2.40;;
16033;SDS011;8121;51.418;6.998;2024-01-30T03:56:19;3.43;;;2.50;;
16033;SDS011;8121;51.418;6.998;2024-01-30T04:01:21;9.33;;;4.70;;
16033;SDS011;8121;51.418;6.998;2024-01-30T04:06:22;4.43;;;3.03;;
16033;SDS011;8121;51.418;6.998;2024-01-30T04:11:25;3.00;;;2.80;;
16033;SDS011;8121;51.418;6.998;2024-01-30T04:16:26;9.83;;;4.13;;
16033;SDS011;8121;51.418;6.998;2024-01-30T04:21:28;8.73;;;3.70;;
16033;SDS011;8121;51.418;6.998;2024-01-30T04:26:31;8.70;;;5.80;;
16033;SDS011;8121;51.418;6.998;2024-01-30T04:31:32;8.53;;;4.47;;
16033;SDS011;8121;51.418;6.998;2024-01-30T04:36:34;9.87;;;6.63;;
16033;SDS011;8121;51.418;6.998;2024-01-30T04:41:36;15.73;;;5.93;;
16033;SDS011;8121;51.418;6.998;2024-01-30T04:46:38;24.63;;;9.63;;
16033;SDS011;8121;51.418;6.998;2024-01-30T04:51:39;13.83;;;7.43;;
16033;SDS011;8121;51.418;6.998;2024-01-30T04:56:42;15.67;;;7.00;;
16033;SDS011;8121;51.418;6.998;2024-01-30T05:01:43;20.40;;;8.30;;
16033;SDS011;8121;51.418;6.998;2024-01-30T05:06:45;16.00;;;7.07;;
16033;SDS011;8121;51.418;6.998;2024-01-30T05:11:48;15.43;;;7.07;;
16033;SDS011;8121;51.418;6.998;2024-01-30T05:16:49;12.40;;;5.60;;
16033;SDS011;8121;51.418;6.998;2024-01-30T05:21:51;6.80;;;5.20;;
16033;SDS011;8121;51.418;6.998;2024-01-30T05:26:53;13.60;;;6.57;;
16033;SDS011;8121;51.418;6.998;2024-01-30T05:31:55;18.60;;;6.00;;
16033;SDS011;8121;51.418;6.998;2024-01-30T05:36:56;15.70;;;5.77;;
16033;SDS011;8121;51.418;6.998;2024-01-30T05:41:59;7.53;;;5.23;;
16033;SDS011;8121;51.418;6.998;2024-01-30T05:47:01;10.53;;;4.60;;
16033;SDS011;8121;51.418;6.998;2024-01-30T05:52:02;11.03;;;5.80;;
16033;SDS011;8121;51.418;6.998;2024-01-30T05:57:06;9.43;;;5.03;;
16033;SDS011;8121;51.418;6.998;2024-01-30T06:02:07;9.80;;;5.47;;
16033;SDS011;8121;51.418;6.998;2024-01-30T06:07:09;12.43;;;5.33;;
16033;SDS011;8121;51.418;6.998;2024-01-30T06:12:12;6.40;;;4.10;;
16033;SDS011;8121;51.418;6.998;2024-01-30T06:17:13;6.63;;;4.27;;
16033;SDS011;8121;51.418;6.998;2024-01-30T06:22:15;4.20;;;3.80;;
16033;SDS011;8121;51.418;6.998;2024-01-30T06:27:18;6.80;;;3.63;;
16033;SDS011;8121;51.418;6.998;2024-01-30T06:32:20;3.47;;;2.83;;
16033;SDS011;8121;51.418;6.998;2024-01-30T06:37:21;5.27;;;3.53;;
16033;SDS011;8121;51.418;6.998;2024-01-30T06:42:24;6.60;;;3.40;;
16033;SDS011;8121;51.418;6.998;2024-01-30T06:47:25;6.03;;;3.50;;
16033;SDS011;8121;51.418;6.998;2024-01-30T06:52:27;7.07;;;4.97;;
16033;SDS011;8121;51.418;6.998;2024-01-30T06:57:29;9.23;;;4.07;;
16033;SDS011;8121;51.418;6.998;2024-01-30T07:02:31;6.87;;;3.20;;
16033;SDS011;8121;51.418;6.998;2024-01-30T07:07:32;5.07;;;4.10;;
16033;SDS011;8121;51.418;6.998;2024-01-30T07:12:35;5.00;;;3.70;;
16033;SDS011;8121;51.418;6.998;2024-01-30T07:17:37;4.43;;;3.40;;
16033;SDS011;8121;51.418;6.998;2024-01-30T07:22:39;6.00;;;3.47;;
16033;SDS011;8121;51.418;6.998;2024-01-30T07:27:42;5.20;;;3.00;;
16033;SDS011;8121;51.418;6.998;2024-01-30T07:32:43;2.87;;;2.50;;
16033;SDS011;8121;51.418;6.998;2024-01-30T07:37:45;7.37;;;3.43;;
16033;SDS011;8121;51.418;6.998;2024-01-30T07:42:49;4.10;;;3.27;;
16033;SDS011;8121;51.418;6.998;2024-01-30T07:47:50;2.80;;;2.50;;
16033;SDS011;8121;51.418;6.998;2024-01-30T07:52:52;15.43;;;4.10;;
16033;SDS011;8121;51.418;6.998;2024-01-30T07:57:56;6.93;;;3.43;;
16033;SDS011;8121;51.418;6.998;2024-01-30T08:02:58;6.00;;;3.50;;
16033;SDS011;8121;51.418;6.998;2024-01-30T08:08:00;6.33;;;3.30;;
16033;SDS011;8121;51.418;6.998;2024-01-30T08:13:03;5.17;;;3.77;;
16033;SDS011;8121;51.418;6.998;2024-01-30T08:18:05;14.37;;;4.53;;
16033;SDS011;8121;51.418;6.998;2024-01-30T08:23:07;5.50;;;3.20;;
16033;SDS011;8121;51.418;6.998;2024-01-30T08:28:10;4.73;;;3.70;;
16033;SDS011;8121;51.418;6.998;2024-01-30T08:33:12;4.63;;;2.80;;
16033;SDS011;8121;51.418;6.998;2024-01-30T08:38:13;7.00;;;3.40;;
16033;SDS011;8121;51.418;6.998;2024-01-30T08:43:16;3.23;;;2.93;;
16033;SDS011;8121;51.418;6.998;2024-01-30T08:48:17;4.20;;;2.83;;
16033;SDS011;8121;51.418;6.998;2024-01-30T08:53:19;3.20;;;2.90;;
16033;SDS011;8121;51.418;6.998;2024-01-30T08:58:21;4.37;;;3.97;;
16033;SDS011;8121;51.418;6.998;2024-01-30T09:03:23;5.03;;;2.80;;
16033;SDS011;8121;51.418;6.998;2024-01-30T09:08:24;7.57;;;4.30;;
16033;SDS011;8121;51.418;6.998;2024-01-30T09:13:27;2.57;;;2.37;;
16033;SDS011;8121;51.418;6.998;2024-01-30T09:18:29;3.00;;;2.80;;
16033;SDS011;8121;51.418;6.998;2024-01-30T09:23:30;5.67;;;3.40;;
16033;SDS011;8121;51.418;6.998;2024-01-30T09:28:34;8.93;;;3.17;;
16033;SDS011;8121;51.418;6.998;2024-01-30T09:33:35;3.00;;;2.80;;
16033;SDS011;8121;51.418;6.998;2024-01-30T09:38:37;9.63;;;4.30;;
16033;SDS011;8121;51.418;6.998;2024-01-30T09:43:40;3.57;;;3.27;;
16033;SDS011;8121;51.418;6.998;2024-01-30T09:48:42;6.13;;;3.00;;
16033;SDS011;8121;51.418;6.998;2024-01-30T09:53:44;7.27;;;4.30;;
16033;SDS011;8121;51.418;6.998;2024-01-30T09:58:47;3.70;;;3.33;;
16033;SDS011;8121;51.418;6.998;2024-01-30T10:03:50;2.70;;;2.57;;
16033;SDS011;8121;51.418;6.998;2024-01-30T10:08:53;3.50;;;3.13;;
16033;SDS011;8121;51.418;6.998;2024-01-30T10:13:56;2.50;;;2.00;;
16033;SDS011;8121;51.418;6.998;2024-01-30T10:18:57;5.97;;;3.63;;
16033;SDS011;8121;51.418;6.998;2024-01-30T10:23:59;4.80;;;3.40;;
16033;SDS011;8121;51.418;6.998;2024-01-30T10:29:01;7.50;;;3.40;;
16033;SDS011;8121;51.418;6.998;2024-01-30T10:34:03;4.50;;;3.10;;
16033;SDS011;8121;51.418;6.998;2024-01-30T10:39:05;6.30;;;2.90;;
16033;SDS011;8121;51.418;6.998;2024-01-30T10:44:10;6.33;;;4.20;;
16033;SDS011;8121;51.418;6.998;2024-01-30T10:49:12;7.40;;;3.40;;
16033;SDS011;8121;51.418;6.998;2024-01-30T10:54:13;3.23;;;2.87;;
16033;SDS011;8121;51.418;6.998;2024-01-30T10:59:17;11.63;;;3.47;;
16033;SDS011;8121;51.418;6.998;2024-01-30T11:04:19;4.03;;;2.83;;
16033;SDS011;8121;51.418;6.998;2024-01-30T11:09:21;2.67;;;2.47;;
16033;SDS011;8121;51.418;6.998;2024-01-30T11:14:24;5.47;;;3.60;;
16033;SDS011;8121;51.418;6.998;2024-01-30T11:19:26;2.83;;;2.60;;
16033;SDS011;8121;51.418;6.998;2024-01-30T11:24:28;4.03;;;2.40;;
16033;SDS011;8121;51.418;6.998;2024-01-30T11:29:31;4.87;;;2.57;;
16033;SDS011;8121;51.418;6.998;2024-01-30T11:34:36;6.27;;;3.40;;
16033;SDS011;8121;51.418;6.998;2024-01-30T11:39:42;4.30;;;2.50;;
16033;SDS011;8121;51.418;6.998;2024-01-30T11:44:47;7.57;;;2.57;;
16033;SDS011;8121;51.418;6.998;2024-01-30T11:49:49;8.50;;;3.30;;
16033;SDS011;8121;51.418;6.998;2024-01-30T11:54:50;18.93;;;3.60;;
16033;SDS011;8121;51.418;6.998;2024-01-30T11:59:53;17.23;;;3.53;;
16033;SDS011;8121;51.418;6.998;2024-01-30T12:04:54;6.50;;;3.77;;
16033;SDS011;8121;51.418;6.998;2024-01-30T12:09:56;12.57;;;2.60;;
16033;SDS011;8121;51.418;6.998;2024-01-30T12:14:59;9.80;;;3.63;;
16033;SDS011;8121;51.418;6.998;2024-01-30T12:20:04;6.47;;;3.23;;
16033;SDS011;8121;51.418;6.998;2024-01-30T12:25:07;6.20;;;3.17;;
16033;SDS011;8121;51.418;6.998;2024-01-30T12:30:11;9.63;;;4.50;;
16033;SDS011;8121;51.418;6.998;2024-01-30T12:35:15;2.90;;;2.50;;
16033;SDS011;8121;51.418;6.998;2024-01-30T12:40:17;6.40;;;3.00;;
16033;SDS011;8121;51.418;6.998;2024-01-30T12:45:20;3.00;;;2.57;;
16033;SDS011;8121;51.418;6.998;2024-01-30T12:50:22;9.00;;;3.07;;
16033;SDS011;8121;51.418;6.998;2024-01-30T12:55:24;4.63;;;3.13;;
16033;SDS011;8121;51.418;6.998;2024-01-30T13:00:29;8.50;;;3.60;;
16033;SDS011;8121;51.418;6.998;2024-01-30T13:05:31;5.80;;;3.37;;
16033;SDS011;8121;51.418;6.998;2024-01-30T13:10:32;4.47;;;2.90;;
16033;SDS011;8121;51.418;6.998;2024-01-30T13:15:35;7.10;;;3.50;;
16033;SDS011;8121;51.418;6.998;2024-01-30T13:20:36;4.23;;;3.20;;
16033;SDS011;8121;51.418;6.998;2024-01-30T13:25:38;6.13;;;3.00;;
16033;SDS011;8121;51.418;6.998;2024-01-30T13:30:40;9.17;;;3.80;;
16033;SDS011;8121;51.418;6.998;2024-01-30T13:35:42;5.63;;;3.60;;
16033;SDS011;8121;51.418;6.998;2024-01-30T13:40:43;4.13;;;3.47;;
16033;SDS011;8121;51.418;6.998;2024-01-30T13:45:46;10.47;;;4.93;;
16033;SDS011;8121;51.418;6.998;2024-01-30T13:50:48;5.83;;;3.07;;
16033;SDS011;8121;51.418;6.998;2024-01-30T13:55:49;6.33;;;3.67;;
16033;SDS011;8121;51.418;6.998;2024-01-30T14:00:52;6.93;;;3.40;;
16033;SDS011;8121;51.418;6.998;2024-01-30T14:05:53;15.10;;;4.90;;
16033;SDS011;8121;51.418;6.998;2024-01-30T14:10:55;9.53;;;3.60;;
16033;SDS011;8121;51.418;6.998;2024-01-30T14:15:58;5.93;;;2.67;;
16033;SDS011;8121;51.418;6.998;2024-01-30T14:20:59;9.10;;;4.80;;
16033;SDS011;8121;51.418;6.998;2024-01-30T14:26:01;10.03;;;3.80;;
16033;SDS011;8121;51.418;6.998;2024-01-30T14:31:04;8.10;;;4.10;;
16033;SDS011;8121;51.418;6.998;2024-01-30T14:36:05;4.63;;;3.30;;
16033;SDS011;8121;51.418;6.998;2024-01-30T14:41:08;7.27;;;4.40;;
16033;SDS011;8121;51.418;6.998;2024-01-30T14:46:10;3.40;;;2.93;;
16033;SDS011;8121;51.418;6.998;2024-01-30T14:51:12;4.90;;;4.10;;
16033;SDS011;8121;51.418;6.998;2024-01-30T14:56:13;6.80;;;4.30;;
16033;SDS011;8121;51.418;6.998;2024-01-30T15:01:16;3.57;;;3.17;;
16033;SDS011;8121;51.418;6.998;2024-01-30T15:06:19;6.10;;;4.50;;
16033;SDS011;8121;51.418;6.998;2024-01-30T15:11:22;4.87;;;3.87;;
16033;SDS011;8121;51.418;6.998;2024-01-30T15:16:25;4.77;;;3.23;;
16033;SDS011;8121;51.418;6.998;2024-01-30T15:21:28;5.07;;;2.77;;
16033;SDS011;8121;51.418;6.998;2024-01-30T15:26:29;9.03;;;3.57;;
16033;SDS011;8121;51.418;6.998;2024-01-30T15:31:32;9.13;;;3.77;;
16033;SDS011;8121;51.418;6.998;2024-01-30T15:36:33;5.87;;;3.07;;
16033;SDS011;8121;51.418;6.998;2024-01-30T15:41:35;2.73;;;2.53;;
16033;SDS011;8121;51.418;6.998;2024-01-30T15:46:38;3.83;;;2.53;;
16033;SDS011;8121;51.418;6.998;2024-01-30T15:51:39;3.47;;;1.93;;
16033;SDS011;8121;51.418;6.998;2024-01-30T15:56:41;3.10;;;1.60;;
16033;SDS011;8121;51.418;6.998;2024-01-30T16:01:44;2.30;;;1.43;;
16033;SDS011;8121;51.418;6.998;2024-01-30T16:06:48;3.47;;;1.07;;
16033;SDS011;8121;51.418;6.998;2024-01-30T16:11:50;0.83;;;0.83;;
16033;SDS011;8121;51.418;6.998;2024-01-30T16:16:53;2.43;;;1.07;;
16033;SDS011;8121;51.418;6.998;2024-01-30T16:21:55;5.73;;;1.30;;
16033;SDS011;8121;51.418;6.998;2024-01-30T16:26:56;1.33;;;1.23;;
16033;SDS011;8121;51.418;6.998;2024-01-30T16:31:59;2.70;;;1.07;;
16033;SDS011;8121;51.418;6.998;2024-01-30T16:37:00;1.80;;;1.33;;
16033;SDS011;8121;51.418;6.998;2024-01-30T16:42:02;6.10;;;1.30;;
16033;SDS011;8121;51.418;6.998;2024-01-30T16:47:05;2.43;;;1.20;;
16033;SDS011;8121;51.418;6.998;2024-01-30T16:52:06;2.80;;;1.33;;
16033;SDS011;8121;51.418;6.998;2024-01-30T16:57:08;3.53;;;0.97;;
16033;SDS011;8121;51.418;6.998;2024-01-30T17:02:11;2.10;;;0.97;;
16033;SDS011;8121;51.418;6.998;2024-01-30T17:07:12;5.67;;;1.10;;
16033;SDS011;8121;51.418;6.998;2024-01-30T17:12:14;6.20;;;1.00;;
16033;SDS011;8121;51.418;6.998;2024-01-30T17:17:17;2.30;;;0.90;;
16033;SDS011;8121;51.418;6.998;2024-01-30T17:22:18;5.00;;;1.00;;
16033;SDS011;8121;51.418;6.998;2024-01-30T17:27:21;1.67;;;0.90;;
16033;SDS011;8121;51.418;6.998;2024-01-30T17:32:24;5.90;;;1.20;;
16033;SDS011;8121;51.418;6.998;2024-01-30T17:37:26;0.70;;;0.63;;
16033;SDS011;8121;51.418;6.998;2024-01-30T17:42:27;0.80;;;0.80;;
16033;SDS011;8121;51.418;6.998;2024-01-30T17:47:30;2.93;;;0.93;;
16033;SDS011;8121;51.418;6.998;2024-01-30T17:52:32;3.20;;;1.17;;
16033;SDS011;8121;51.418;6.998;2024-01-30T17:57:33;2.20;;;1.20;;
16033;SDS011;8121;51.418;6.998;2024-01-30T18:02:36;1.10;;;1.00;;
16033;SDS011;8121;51.418;6.998;2024-01-30T18:07:37;4.33;;;1.70;;
16033;SDS011;8121;51.418;6.998;2024-01-30T18:12:39;3.50;;;1.07;;
16033;SDS011;8121;51.418;6.998;2024-01-30T18:17:43;2.00;;;1.23;;
16033;SDS011;8121;51.418;6.998;2024-01-30T18:22:44;3.50;;;1.00;;
16033;SDS011;8121;51.418;6.998;2024-01-30T18:27:46;1.10;;;1.00;;
16033;SDS011;8121;51.418;6.998;2024-01-30T18:32:51;1.57;;;1.00;;
16033;SDS011;8121;51.418;6.998;2024-01-30T18:37:53;4.47;;;1.10;;
16033;SDS011;8121;51.418;6.998;2024-01-30T18:42:54;2.03;;;1.90;;
16033;SDS011;8121;51.418;6.998;2024-01-30T18:47:57;1.13;;;1.03;;
16033;SDS011;8121;51.418;6.998;2024-01-30T18:52:59;3.50;;;1.80;;
16033;SDS011;8121;51.418;6.998;2024-01-30T18:58:00;2.30;;;1.50;;
16033;SDS011;8121;51.418;6.998;2024-01-30T19:03:03;1.13;;;1.03;;
16033;SDS011;8121;51.418;6.998;2024-01-30T19:08:05;5.83;;;2.13;;
16033;SDS011;8121;51.418;6.998;2024-01-30T19:13:07;2.73;;;2.30;;
16033;SDS011;8121;51.418;6.998;2024-01-30T19:18:10;2.27;;;1.87;;
16033;SDS011;8121;51.418;6.998;2024-01-30T19:23:11;4.67;;;1.73;;
16033;SDS011;8121;51.418;6.998;2024-01-30T19:28:13;1.60;;;1.40;;
16033;SDS011;8121;51.418;6.998;2024-01-30T19:33:16;5.67;;;2.70;;
16033;SDS011;8121;51.418;6.998;2024-01-30T19:38:17;1.97;;;1.80;;
16033;SDS011;8121;51.418;6.998;2024-01-30T19:43:20;2.50;;;2.30;;
16033;SDS011;8121;51.418;6.998;2024-01-30T19:48:23;4.50;;;2.70;;
16033;SDS011;8121;51.418;6.998;2024-01-30T19:53:25;6.20;;;3.60;;
16033;SDS011;8121;51.418;6.998;2024-01-30T19:58:26;2.30;;;2.20;;
16033;SDS011;8121;51.418;6.998;2024-01-30T20:03:29;4.57;;;3.47;;
16033;SDS011;8121;51.418;6.998;2024-01-30T20:08:32;6.17;;;3.33;;
16033;SDS011;8121;51.418;6.998;2024-01-30T20:13:34;4.80;;;4.30;;
16033;SDS011;8121;51.418;6.998;2024-01-30T20:18:41;4.37;;;3.90;;
16033;SDS011;8121;51.418;6.998;2024-01-30T20:23:42;5.03;;;4.03;;
16033;SDS011;8121;51.418;6.998;2024-01-30T20:28:44;4.30;;;3.40;;
16033;SDS011;8121;51.418;6.998;2024-01-30T20:33:49;6.50;;;4.30;;
16033;SDS011;8121;51.418;6.998;2024-01-30T20:38:50;10.83;;;5.90;;
16033;SDS011;8121;51.418;6.998;2024-01-30T20:43:52;5.97;;;3.93;;
16033;SDS011;8121;51.418;6.998;2024-01-30T20:48:57;4.50;;;3.80;;
16033;SDS011;8121;51.418;6.998;2024-01-30T20:53:59;4.67;;;3.97;;
16033;SDS011;8121;51.418;6.998;2024-01-30T20:59:00;3.97;;;3.57;;
16033;SDS011;8121;51.418;6.998;2024-01-30T21:04:03;5.10;;;3.40;;
16033;SDS011;8121;51.418;6.998;2024-01-30T21:09:05;4.20;;;3.80;;
16033;SDS011;8121;51.418;6.998;2024-01-30T21:14:07;8.20;;;4.90;;
16033;SDS011;8121;51.418;6.998;2024-01-30T21:19:12;4.00;;;3.53;;
16033;SDS011;8121;51.418;6.998;2024-01-30T21:24:14;3.93;;;3.63;;
16033;SDS011;8121;51.418;6.998;2024-01-30T21:29:15;7.87;;;5.13;;
16033;SDS011;8121;51.418;6.998;2024-01-30T21:40:15;6.73;;;5.43;;
16033;SDS011;8121;51.418;6.998;2024-01-30T21:45:17;6.27;;;4.97;;
16033;SDS011;8121;51.418;6.998;2024-01-30T21:50:20;11.93;;;6.00;;
16033;SDS011;8121;51.418;6.998;2024-01-30T21:55:23;5.97;;;4.63;;
16033;SDS011;8121;51.418;6.998;2024-01-30T22:00:25;6.93;;;6.20;;
16033;SDS011;8121;51.418;6.998;2024-01-30T22:05:26;11.40;;;7.67;;
16033;SDS011;8121;51.418;6.998;2024-01-30T22:10:29;10.57;;;6.90;;
16033;SDS011;8121;51.418;6.998;2024-01-30T22:15:31;6.47;;;5.20;;
16033;SDS011;8121;51.418;6.998;2024-01-30T22:20:36;6.97;;;5.00;;
16033;SDS011;8121;51.418;6.998;2024-01-30T22:25:39;11.50;;;8.23;;
16033;SDS011;8121;51.418;6.998;2024-01-30T22:30:41;7.53;;;5.33;;
16033;SDS011;8121;51.418;6.998;2024-01-30T22:35:42;5.87;;;5.00;;
16033;SDS011;8121;51.418;6.998;2024-01-30T22:40:45;15.03;;;8.00;;
16033;SDS011;8121;51.418;6.998;2024-01-30T22:45:47;7.83;;;5.27;;
16033;SDS011;8121;51.418;6.998;2024-01-30T22:50:48;10.33;;;6.27;;
16033;SDS011;8121;51.418;6.998;2024-01-30T22:55:51;18.80;;;8.20;;
16033;SDS011;8121;51.418;6.998;2024-01-30T23:00:53;13.87;;;8.30;;
16033;SDS011;8121;51.418;6.998;2024-01-30T23:05:54;14.20;;;8.07;;
16033;SDS011;8121;51.418;6.998;2024-01-30T23:10:57;15.83;;;8.80;;
16033;SDS011;8121;51.418;6.998;2024-01-30T23:15:59;10.70;;;7.40;;
16033;SDS011;8121;51.418;6.998;2024-01-30T23:21:00;12.93;;;8.07;;
16033;SDS011;8121;51.418;6.998;2024-01-30T23:26:03;10.33;;;7.03;;
16033;SDS011;8121;51.418;6.998;2024-01-30T23:31:05;12.20;;;8.13;;
16033;SDS011;8121;51.418;6.998;2024-01-30T23:36:06;19.20;;;10.53;;
16033;SDS011;8121;51.418;6.998;2024-01-30T23:41:09;37.23;;;11.50;;
16033;SDS011;8121;51.418;6.998;2024-01-30T23:46:11;22.03;;;10.70;;
16033;SDS011;8121;51.418;6.998;2024-01-30T23:51:13;11.70;;;8.20;;
16033;SDS011;8121;51.418;6.998;2024-01-30T23:56:15;11.83;;;7.60;;
